Time;durP1;ratioP1;P1;durP2;ratioP2;P2;SDS_P1;SDS_P2;PMS_P1;PMS_P2;Temp;Humidity;BMP_temperature;BMP_pressure;BME280_temperature;BME280_humidity;BME280_pressure;Samples;Min_cycle;Max_cycle;Signal;HPM_P1;HPM_P2
2022/03/21 00:00:36;;;;;;;0.20;0.20;;;;;;;20.34;35.58;102568.88;5097244;28;20166;-32
2022/03/21 00:03:02;;;;;;;0.20;0.20;;;;;;;20.34;35.25;102566.13;5096224;28;20101;-31
2022/03/21 00:05:30;;;;;;;0.20;0.20;;;;;;;20.35;35.32;102562.25;5097875;28;20047;-31
2022/03/21 00:07:56;;;;;;;0.20;0.20;;;;;;;20.34;35.21;102556.97;5094932;28;20106;-31
2022/03/21 00:10:22;;;;;;;0.20;0.20;;;;;;;20.34;35.60;102563.34;5096136;28;20497;-31
2022/03/21 00:12:51;;;;;;;0.20;0.20;;;;;;;20.33;35.52;102564.41;5113938;28;20044;-31
2022/03/21 00:15:19;;;;;;;0.20;0.20;;;;;;;20.34;35.44;102570.81;5114428;28;20123;-32
2022/03/21 00:17:45;;;;;;;0.20;0.20;;;;;;;20.34;35.54;102559.75;5117811;28;20067;-34
2022/03/21 00:20:12;;;;;;;0.20;0.20;;;;;;;20.32;35.42;102557.22;5117133;28;20405;-32
2022/03/21 00:22:38;;;;;;;0.20;0.20;;;;;;;20.34;35.61;102566.13;5114021;28;20462;-31
2022/03/21 00:25:05;;;;;;;0.20;0.20;;;;;;;20.34;35.41;102556.97;5114499;28;20048;-32
2022/03/21 00:27:32;;;;;;;0.20;0.20;;;;;;;20.34;35.44;102568.03;5081604;28;20070;-35
2022/03/21 00:29:58;;;;;;;0.20;0.20;;;;;;;20.33;35.53;102566.34;5094361;28;20432;-33
2022/03/21 00:32:24;;;;;;;0.20;0.20;;;;;;;20.33;35.39;102567.19;5097076;28;20055;-31
2022/03/21 00:34:49;;;;;;;0.20;0.20;;;;;;;20.33;35.53;102556.09;5113830;28;20042;-31
2022/03/21 00:37:15;;;;;;;0.20;0.20;;;;;;;20.33;35.36;102560.81;5114504;28;20054;-32
2022/03/21 00:39:41;;;;;;;0.20;0.20;;;;;;;20.33;35.21;102561.66;5114361;28;20689;-34
2022/03/21 00:42:10;;;;;;;0.20;0.20;;;;;;;20.32;35.34;102565.50;5114205;28;20051;-31
2022/03/21 00:44:37;;;;;;;0.20;0.20;;;;;;;20.30;35.39;102557.47;5112899;28;20413;-31
2022/03/21 00:47:03;;;;;;;0.20;0.20;;;;;;;20.32;35.38;102559.13;5115805;28;20494;-32
2022/03/21 00:49:29;;;;;;;0.20;0.20;;;;;;;20.31;35.63;102552.78;5096783;28;20047;-33
2022/03/21 00:51:55;;;;;;;0.20;0.20;;;;;;;20.32;35.42;102561.91;5091963;28;20451;-31
2022/03/21 00:54:21;;;;;;;0.20;0.20;;;;;;;20.33;35.46;102556.09;5114376;28;20378;-32
2022/03/21 00:56:46;;;;;;;0.20;0.20;;;;;;;20.32;35.47;102559.97;5095280;28;20051;-33
2022/03/21 00:59:12;;;;;;;0.20;0.20;;;;;;;20.32;35.54;102551.66;5093015;28;20070;-31
2022/03/21 01:01:38;;;;;;;0.20;0.20;;;;;;;20.33;35.46;102558.03;5091813;28;20043;-35
2022/03/21 01:04:04;;;;;;;0.20;0.20;;;;;;;20.32;35.27;102565.50;5111316;28;20081;-32
2022/03/21 01:06:30;;;;;;;0.20;0.20;;;;;;;20.31;35.53;102566.59;5115344;28;20051;-33
2022/03/21 01:08:55;;;;;;;0.20;0.20;;;;;;;20.31;35.37;102569.38;5115836;28;20048;-34
2022/03/21 01:11:24;;;;;;;0.20;0.20;;;;;;;20.31;35.64;102555.53;5093664;28;20050;-33
2022/03/21 01:13:50;;;;;;;0.20;0.20;;;;;;;20.31;35.60;102563.84;5099792;28;20438;-32
2022/03/21 01:16:16;;;;;;;0.20;0.20;;;;;;;20.31;35.31;102561.06;5113214;28;20047;-34
2022/03/21 01:18:45;;;;;;;0.20;0.20;;;;;;;20.32;35.67;102564.69;5094966;28;20062;-31
2022/03/21 01:21:11;;;;;;;0.20;0.20;;;;;;;20.30;35.38;102568.53;5111846;28;20074;-34
2022/03/21 01:23:37;;;;;;;0.20;0.20;;;;;;;20.31;35.51;102574.91;5111291;28;20086;-33
2022/03/21 01:26:03;;;;;;;0.20;0.20;;;;;;;20.31;35.35;102580.44;5114057;28;20405;-32
2022/03/21 01:28:28;;;;;;;0.20;0.20;;;;;;;20.30;35.29;102576.84;5091415;28;20055;-32
2022/03/21 01:30:54;;;;;;;0.20;0.20;;;;;;;20.32;35.43;102578.50;5113642;28;20044;-33
2022/03/21 01:33:20;;;;;;;0.20;0.20;;;;;;;20.31;35.57;102577.66;5114535;28;20046;-32
2022/03/21 01:35:45;;;;;;;0.20;0.20;;;;;;;20.31;35.25;102572.13;5110251;28;20055;-32
2022/03/21 01:38:11;;;;;;;0.25;0.25;;;;;;;20.29;35.53;102583.47;5115826;28;20444;-32
2022/03/21 01:40:37;;;;;;;0.20;0.20;;;;;;;20.30;35.68;102573.22;5098667;28;20096;-31
2022/03/21 01:43:09;;;;;;;0.13;0.13;;;;;;;20.29;35.43;102566.88;5114904;28;20403;-31
2022/03/21 01:45:34;;;;;;;0.10;0.10;;;;;;;20.30;35.14;102571.31;5118631;28;20081;-31
2022/03/21 01:48:00;;;;;;;0.20;0.20;;;;;;;20.30;35.64;102576.84;5115624;28;20047;-33
2022/03/21 01:50:26;;;;;;;0.20;0.20;;;;;;;20.30;35.72;102576.84;5111224;28;20051;-31
2022/03/21 01:55:43;;;;;;;0.20;0.20;;;;;;;20.30;35.30;102581.53;5111079;28;20040;-31
2022/03/21 01:55:44;;;;;;;0.20;0.20;;;;;;;20.29;35.33;102580.69;5099645;28;20051;-32
2022/03/21 01:58:13;;;;;;;0.20;0.20;;;;;;;20.30;35.33;102576.00;5108646;28;20095;-31
2022/03/21 02:00:41;;;;;;;0.20;0.20;;;;;;;20.30;35.68;102567.69;5095394;28;20075;-32
2022/03/21 02:03:07;;;;;;;0.20;0.20;;;;;;;20.31;35.71;102577.66;5092226;28;20072;-34
2022/03/21 02:05:36;;;;;;;0.20;0.20;;;;;;;20.31;35.61;102577.66;5113258;28;20040;-31
2022/03/21 02:08:02;;;;;;;0.20;0.20;;;;;;;20.31;35.56;102572.13;5096099;28;20086;-32
2022/03/21 02:10:28;;;;;;;0.20;0.20;;;;;;;20.30;35.31;102570.47;5098615;28;20044;-34
2022/03/21 02:12:54;;;;;;;0.20;0.20;;;;;;;20.30;35.26;102573.22;5114206;28;20094;-32
2022/03/21 02:15:20;;;;;;;0.20;0.20;;;;;;;20.30;35.43;102578.78;5079602;28;20464;-32
2022/03/21 02:17:46;;;;;;;0.20;0.20;;;;;;;20.29;35.63;102574.28;5114586;28;20039;-31
2022/03/21 02:20:16;;;;;;;0.20;0.20;;;;;;;20.30;35.62;102567.69;5086426;28;20493;-30
2022/03/21 02:23:08;;;;;;;0.20;0.20;;;;;;;20.29;35.49;102566.00;5115477;27;20142;-32
2022/03/21 02:25:35;;;;;;;0.20;0.20;;;;;;;20.30;35.64;102567.69;5083225;28;20136;-30
2022/03/21 02:28:06;;;;;;;0.20;0.20;;;;;;;20.29;35.57;102568.75;5095242;28;20478;-31
2022/03/21 02:30:35;;;;;;;0.20;0.20;;;;;;;20.29;35.40;102568.75;5092216;28;20126;-31
2022/03/21 02:33:00;;;;;;;;;;;;;;;20.27;35.61;102563.50;5097389;28;20075;-32
2022/03/21 02:35:28;;;;;;;0.20;0.20;;;;;;;20.27;35.79;102559.88;5113714;28;20150;-32
2022/03/21 02:37:55;;;;;;;0.20;0.20;;;;;;;20.28;35.45;102562.41;5117712;28;20047;-32
2022/03/21 02:40:21;;;;;;;0.20;0.20;;;;;;;20.29;35.62;102560.47;5092575;28;20079;-31
2022/03/21 02:42:46;;;;;;;0.20;0.20;;;;;;;20.28;35.38;102565.16;5113601;28;20058;-31
2022/03/21 02:45:12;;;;;;;0.20;0.20;;;;;;;20.28;35.66;102564.31;5111799;28;20402;-33
2022/03/21 02:47:38;;;;;;;0.20;0.20;;;;;;;20.26;35.31;102564.59;5093373;28;20051;-32
2022/03/21 02:50:04;;;;;;;0.20;0.20;;;;;;;20.29;35.49;102561.34;5109625;28;20054;-32
2022/03/21 02:52:30;;;;;;;0.20;0.20;;;;;;;20.28;35.36;102567.09;5110778;28;20132;-31
2022/03/21 02:54:56;;;;;;;0.20;0.20;;;;;;;20.27;35.77;102557.97;5107968;28;20051;-33
2022/03/21 02:57:21;;;;;;;0.20;0.20;;;;;;;20.29;35.40;102554.94;5113404;28;20071;-31
2022/03/21 02:59:47;;;;;;;0.20;0.20;;;;;;;20.27;35.74;102552.41;5111783;28;20057;-32
2022/03/21 03:02:13;;;;;;;0.20;0.20;;;;;;;20.29;35.24;102557.69;5109394;28;20050;-31
2022/03/21 03:04:39;;;;;;;0.20;0.20;;;;;;;20.27;35.34;102565.41;5110337;28;20040;-33
2022/03/21 03:07:05;;;;;;;0.20;0.20;;;;;;;20.28;35.62;102564.31;5118184;28;20103;-31
2022/03/21 03:09:30;;;;;;;0.20;0.20;;;;;;;20.29;35.38;102560.47;5115552;28;20414;-31
2022/03/21 03:11:56;;;;;;;0.20;0.20;;;;;;;20.28;35.33;102548.56;5110509;28;20071;-32
2022/03/21 03:14:22;;;;;;;0.20;0.20;;;;;;;20.28;35.45;102553.25;5116474;27;20040;-32
2022/03/21 03:16:47;;;;;;;0.20;0.20;;;;;;;20.27;35.63;102560.72;5098648;28;20090;-32
2022/03/21 03:19:13;;;;;;;0.20;0.20;;;;;;;20.28;35.44;102558.78;5114380;28;20051;-30
2022/03/21 03:21:41;;;;;;;0.20;0.20;;;;;;;20.28;35.31;102556.03;5113402;28;20051;-31
2022/03/21 03:24:09;;;;;;;0.20;0.20;;;;;;;20.27;35.57;102560.72;5095731;28;20082;-32
2022/03/21 03:26:35;;;;;;;0.20;0.20;;;;;;;20.28;35.66;102569.84;5108906;28;20513;-31
2022/03/21 03:29:00;;;;;;;0.20;0.20;;;;;;;20.28;35.69;102567.09;5108713;28;20051;-32
2022/03/21 03:31:26;;;;;;;0.20;0.20;;;;;;;20.28;35.78;102567.09;5113651;28;20405;-31
2022/03/21 03:33:52;;;;;;;0.20;0.20;;;;;;;20.28;35.53;102572.63;5111010;28;20040;-32
2022/03/21 03:36:18;;;;;;;0.20;0.20;;;;;;;20.26;35.37;102564.59;5093229;28;20083;-31
2022/03/21 03:38:44;;;;;;;0.20;0.20;;;;;;;20.28;35.42;102561.56;5112786;28;20082;-31
2022/03/21 03:41:10;;;;;;;0.20;0.20;;;;;;;20.28;35.36;102561.56;5099079;28;20043;-31
2022/03/21 03:43:37;;;;;;;0.20;0.20;;;;;;;20.27;35.34;102562.66;5098156;28;20439;-32
2022/03/21 03:46:02;;;;;;;0.20;0.20;;;;;;;20.26;35.73;102560.97;5117084;28;20055;-31
2022/03/21 03:48:28;;;;;;;0.20;0.20;;;;;;;20.28;35.55;102556.03;5114481;28;20084;-31
2022/03/21 03:50:54;;;;;;;0.20;0.20;;;;;;;20.26;35.56;102563.75;5114660;28;20091;-31
2022/03/21 03:53:20;;;;;;;0.20;0.20;;;;;;;20.26;35.37;102564.59;5115841;28;20126;-32
2022/03/21 03:55:46;;;;;;;0.20;0.20;;;;;;;20.26;35.66;102556.28;5113281;28;20036;-31
2022/03/21 03:58:12;;;;;;;0.20;0.20;;;;;;;20.26;35.55;102559.06;5112992;28;20043;-33
2022/03/21 04:00:37;;;;;;;0.20;0.20;;;;;;;20.26;35.42;102560.97;5094275;28;20043;-31
2022/03/21 04:05:49;;;;;;;0.20;0.20;;;;;;;20.26;35.56;102555.44;5086533;28;20050;-32
2022/03/21 04:08:16;;;;;;;0.20;0.20;;;;;;;20.25;35.65;102562.91;5113230;28;20059;-32
2022/03/21 04:10:42;;;;;;;0.20;0.20;;;;;;;20.25;35.55;102562.91;5119369;28;20081;-31
2022/03/21 04:13:07;;;;;;;0.20;0.20;;;;;;;20.27;35.45;102569.03;5098894;28;20052;-32
2022/03/21 04:15:33;;;;;;;0.20;0.20;;;;;;;20.26;35.67;102572.88;5103515;28;20401;-33
2022/03/21 04:18:01;;;;;;;0.20;0.20;;;;;;;20.27;35.46;102576.50;5118887;28;20142;-32
2022/03/21 04:20:27;;;;;;;0.20;0.20;;;;;;;20.26;35.80;102569.28;5096550;28;20090;-31
2022/03/21 04:22:53;;;;;;;0.20;0.20;;;;;;;20.26;35.64;102572.88;5094989;28;20082;-31
2022/03/21 04:25:19;;;;;;;0.20;0.20;;;;;;;20.25;35.59;102575.88;5114982;28;20401;-31
2022/03/21 04:27:44;;;;;;;0.20;0.20;;;;;;;20.25;35.78;102573.97;5110396;28;20039;-32
2022/03/21 04:30:10;;;;;;;0.20;0.20;;;;;;;20.25;35.68;102573.13;5112022;28;20036;-31
2022/03/21 04:32:36;;;;;;;0.20;0.20;;;;;;;20.25;35.28;102576.75;5112446;28;20071;-32
2022/03/21 04:35:03;;;;;;;0.20;0.20;;;;;;;20.27;35.47;102582.03;5113026;28;20055;-33
2022/03/21 04:37:29;;;;;;;0.20;0.20;;;;;;;20.26;35.55;102577.59;5118716;28;20055;-32
2022/03/21 04:39:54;;;;;;;0.20;0.20;;;;;;;20.26;35.39;102586.72;5097715;28;20035;-32
2022/03/21 04:42:21;;;;;;;0.20;0.20;;;;;;;20.26;35.49;102589.47;5099779;28;20101;-31
2022/03/21 04:44:48;;;;;;;0.20;0.20;;;;;;;20.24;35.77;102586.09;5114348;28;20055;-33
2022/03/21 04:47:14;;;;;;;0.20;0.20;;;;;;;20.26;35.54;102583.13;5115058;28;21031;-31
2022/03/21 04:49:40;;;;;;;0.20;0.20;;;;;;;20.25;35.54;102600.78;5113236;28;20047;-31
2022/03/21 04:52:06;;;;;;;0.20;0.20;;;;;;;20.23;35.46;102598.28;5113520;28;20108;-31
2022/03/21 04:54:32;;;;;;;0.20;0.20;;;;;;;20.25;35.66;102601.66;5096184;28;20086;-33
2022/03/21 04:56:58;;;;;;;0.20;0.20;;;;;;;20.25;35.67;102603.53;5111823;28;20075;-31
2022/03/21 04:59:23;;;;;;;0.20;0.20;;;;;;;20.25;35.52;102606.31;5113910;28;20466;-32
2022/03/21 05:01:49;;;;;;;0.20;0.20;;;;;;;20.25;35.50;102604.41;5097603;28;20406;-33
2022/03/21 05:04:15;;;;;;;0.20;0.20;;;;;;;20.26;35.82;102608.00;5113530;28;20097;-32
2022/03/21 05:06:41;;;;;;;0.20;0.20;;;;;;;20.24;35.69;102608.25;5113239;28;20043;-31
2022/03/21 05:09:07;;;;;;;0.20;0.20;;;;;;;20.24;35.60;102608.25;5117437;28;20069;-31
2022/03/21 05:11:32;;;;;;;0.20;0.20;;;;;;;20.25;35.37;102609.06;5115757;28;20070;-32
2022/03/21 05:13:58;;;;;;;0.20;0.20;;;;;;;20.24;35.54;102613.78;5113569;28;20040;-32
2022/03/21 05:16:24;;;;;;;0.20;0.20;;;;;;;20.23;35.47;102614.88;5096158;28;20043;-33
2022/03/21 05:18:50;;;;;;;0.20;0.20;;;;;;;20.24;35.53;102610.16;5114355;28;20039;-32
2022/03/21 05:21:17;;;;;;;0.20;0.20;;;;;;;20.24;35.65;102612.94;5112365;28;20093;-33
2022/03/21 05:31:59;;;;;;;0.20;0.20;;;;;;;20.24;35.67;102621.25;5098793;28;20486;-31
2022/03/21 05:37:11;;;;;;;0.20;0.20;;;;;;;20.24;35.44;102612.94;5099282;28;20521;-33
2022/03/21 05:40:31;;;;;;;0.20;0.20;;;;;;;20.24;35.67;102618.47;5118021;28;20050;-32
2022/03/21 05:42:22;;;;;;;0.20;0.20;;;;;;;20.24;35.79;102615.69;5101065;28;20039;-31
2022/03/21 05:44:48;;;;;;;0.20;0.20;;;;;;;20.24;35.81;102613.78;5113571;28;20131;-33
2022/03/21 05:47:13;;;;;;;0.20;0.20;;;;;;;20.23;35.48;102619.56;5114398;28;20055;-33
2022/03/21 05:49:39;;;;;;;0.20;0.20;;;;;;;20.24;35.65;102624.00;5112635;28;20067;-31
2022/03/21 05:52:05;;;;;;;0.20;0.20;;;;;;;20.24;35.74;102626.78;5106371;28;20699;-34
2022/03/21 05:54:31;;;;;;;0.20;0.20;;;;;;;20.24;35.64;102626.78;5111359;28;20048;-31
2022/03/21 05:56:56;;;;;;;0.20;0.20;;;;;;;20.23;35.85;102628.69;5111154;28;20052;-34
2022/03/21 06:02:08;;;;;;;0.20;0.20;;;;;;;20.24;35.72;102640.59;5099915;28;20066;-32
2022/03/21 06:04:34;;;;;;;0.20;0.20;;;;;;;20.23;35.52;102648.06;5109369;28;20099;-32
2022/03/21 06:06:59;;;;;;;0.20;0.20;;;;;;;20.24;35.67;102646.13;5115253;28;20047;-32
2022/03/21 06:09:31;;;;;;;0.20;0.20;;;;;;;20.22;35.36;102643.63;5113145;28;20040;-32
2022/03/21 06:11:56;;;;;;;0.20;0.20;;;;;;;20.22;35.43;102648.31;5110303;28;20452;-35
2022/03/21 06:14:22;;;;;;;0.20;0.20;;;;;;;20.23;35.57;102642.53;5113502;28;20040;-32
2022/03/21 06:16:48;;;;;;;0.20;0.20;;;;;;;20.24;35.82;102651.66;5112460;27;20052;-31
2022/03/21 06:19:14;;;;;;;0.20;0.20;;;;;;;20.23;35.88;102647.22;5098267;28;20088;-31
2022/03/21 06:21:40;;;;;;;0.20;0.20;;;;;;;20.24;35.50;102651.66;5096196;28;20043;-32
2022/03/21 06:24:08;;;;;;;0.20;0.20;;;;;;;20.22;35.42;102656.63;5112500;28;20049;-32
2022/03/21 06:26:34;;;;;;;0.20;0.20;;;;;;;20.21;35.57;102658.56;5114096;28;20054;-32
2022/03/21 06:28:59;;;;;;;0.20;0.20;;;;;;;20.22;35.33;102667.69;5092228;28;20051;-31
2022/03/21 06:31:25;;;;;;;0.20;0.20;;;;;;;20.22;35.53;102659.38;5094949;28;20413;-32
2022/03/21 06:33:51;;;;;;;0.20;0.20;;;;;;;20.21;35.78;102666.84;5114447;28;20126;-31
2022/03/21 06:36:17;;;;;;;0.20;0.20;;;;;;;20.21;35.49;102666.84;5109987;28;20163;-33
2022/03/21 06:38:43;;;;;;;0.20;0.20;;;;;;;20.23;35.56;102666.59;5109489;28;20048;-32
2022/03/21 06:41:10;;;;;;;0.20;0.20;;;;;;;20.21;35.29;102672.38;5092281;28;20079;-31
2022/03/21 06:43:35;;;;;;;0.20;0.20;;;;;;;20.22;35.68;102674.06;5113167;28;20070;-31
2022/03/21 06:46:02;;;;;;;0.20;0.20;;;;;;;20.21;35.41;102680.69;5096082;28;20055;-32
2022/03/21 06:48:28;;;;;;;0.20;0.20;;;;;;;20.22;35.43;102671.28;5110683;28;20051;-32
2022/03/21 06:50:55;;;;;;;0.20;0.20;;;;;;;20.21;35.60;102677.91;5107917;28;20062;-31
2022/03/21 06:53:22;;;;;;;0.20;0.20;;;;;;;20.21;35.51;102680.69;5091699;28;20066;-32
2022/03/21 06:55:47;;;;;;;0.28;0.28;;;;;;;20.22;35.85;102685.13;5090761;28;20082;-32
2022/03/21 06:58:14;;;;;;;0.20;0.20;;;;;;;20.22;35.36;102678.75;5096817;28;20044;-30
2022/03/21 07:00:40;;;;;;;0.20;0.20;;;;;;;20.21;35.35;102682.63;5106732;28;20515;-32
2022/03/21 07:03:11;;;;;;;0.20;0.20;;;;;;;20.22;35.66;102684.28;5089097;28;20055;-31
2022/03/21 07:05:37;;;;;;;0.20;0.20;;;;;;;20.23;35.65;102688.72;5080522;28;20091;-32
2022/03/21 07:08:04;;;;;;;0.20;0.20;;;;;;;20.22;35.57;102690.66;5074223;28;20079;-32
2022/03/21 07:10:32;;;;;;;0.20;0.20;;;;;;;20.21;35.49;102688.97;5081148;28;20134;-32
2022/03/21 07:13:03;;;;;;;0.20;0.20;;;;;;;20.21;35.66;102688.97;5085477;28;20075;-32
2022/03/21 07:15:29;;;;;;;0.20;0.20;;;;;;;20.20;35.50;102684.50;5096236;28;20155;-32
2022/03/21 07:17:56;;;;;;;0.20;0.20;;;;;;;20.21;35.62;102688.97;5098268;28;20104;-32
2022/03/21 07:20:21;;;;;;;0.20;0.20;;;;;;;20.22;35.45;102689.81;5090477;28;20081;-31
2022/03/21 07:22:47;;;;;;;0.20;0.20;;;;;;;20.23;35.56;102694.25;5081866;28;20048;-35
2022/03/21 07:25:13;;;;;;;0.20;0.20;;;;;;;20.21;35.87;102697.28;5099410;28;20600;-33
2022/03/21 07:27:38;;;;;;;0.20;0.20;;;;;;;20.21;35.34;102700.06;5105874;28;20059;-31
2022/03/21 07:30:05;;;;;;;0.20;0.20;;;;;;;20.23;36.35;102706.16;5101488;28;20479;-34
2022/03/21 07:32:31;;;;;;;0.20;0.20;;;;;;;20.32;35.79;102697.47;5079768;28;20076;-33
2022/03/21 07:34:58;;;;;;;0.20;0.20;;;;;;;20.32;35.70;102694.72;5063875;28;20187;-32
2022/03/21 07:37:24;;;;;;;0.20;0.20;;;;;;;20.30;35.64;102706.03;5095818;28;20051;-32
2022/03/21 07:39:49;;;;;;;0.20;0.20;;;;;;;20.29;35.70;102704.34;5097946;28;20050;-35
2022/03/21 07:42:16;;;;;;;0.20;0.20;;;;;;;20.31;35.52;102704.94;5095257;28;20046;-31
2022/03/21 07:47:28;;;;;;;0.20;0.20;;;;;;;20.33;35.87;102707.44;5080824;28;20136;-37
2022/03/21 07:49:55;;;;;;;0.20;0.20;;;;;;;20.32;35.53;102706.63;5105006;28;20066;-35
2022/03/21 07:52:21;;;;;;;0.20;0.20;;;;;;;20.34;35.63;102703.63;5074877;28;20447;-33
2022/03/21 07:54:51;;;;;;;0.20;0.20;;;;;;;20.33;35.58;102705.53;5100118;28;20126;-33
2022/03/21 07:57:17;;;;;;;0.20;0.20;;;;;;;20.34;35.66;102711.94;5081987;28;20453;-31
2022/03/21 07:59:43;;;;;;;0.20;0.20;;;;;;;20.34;35.44;102703.63;5101891;28;21376;-32
2022/03/21 08:02:08;;;;;;;0.20;0.20;;;;;;;20.33;35.55;102711.06;5083277;28;20055;-32
2022/03/21 08:04:34;;;;;;;0.20;0.20;;;;;;;20.35;35.52;102713.59;5105000;28;20425;-31
2022/03/21 08:07:00;;;;;;;0.20;0.20;;;;;;;20.36;35.73;102712.50;5105401;28;20758;-31
2022/03/21 08:09:27;;;;;;;0.20;0.20;;;;;;;20.36;35.64;102716.09;5095640;28;20112;-30
2022/03/21 08:11:54;;;;;;;0.20;0.20;;;;;;;20.38;35.65;102711.19;5090136;28;20535;-31
2022/03/21 08:14:20;;;;;;;0.20;0.20;;;;;;;20.38;35.64;102713.09;5101361;28;20269;-33
2022/03/21 08:16:46;;;;;;;0.20;0.20;;;;;;;20.39;35.50;102712.84;5094765;28;20189;-31
2022/03/21 08:19:12;;;;;;;0.28;0.28;;;;;;;20.39;35.39;102717.56;5103295;28;20105;-32
2022/03/21 08:21:37;;;;;;;0.20;0.20;;;;;;;20.40;35.73;102713.69;5100585;28;20490;-32
2022/03/21 08:24:04;;;;;;;0.20;0.20;;;;;;;20.42;35.63;102711.50;5100441;28;20546;-32
2022/03/21 08:26:30;;;;;;;0.20;0.20;;;;;;;20.42;35.14;102720.69;5098044;28;20039;-34
2022/03/21 08:28:56;;;;;;;0.20;0.20;;;;;;;20.43;35.50;102719.59;5093252;28;20100;-32
2022/03/21 08:31:22;;;;;;;0.20;0.20;;;;;;;20.44;35.46;102718.50;5099965;28;20478;-35
2022/03/21 08:33:47;;;;;;;0.20;0.20;;;;;;;20.44;35.28;102712.97;5104695;28;20470;-33
2022/03/21 08:36:13;;;;;;;0.20;0.20;;;;;;;20.45;35.48;102714.63;5101573;28;20050;-31
2022/03/21 08:38:40;;;;;;;0.20;0.20;;;;;;;20.45;35.38;102714.63;5101191;28;20856;-32
2022/03/21 08:41:06;;;;;;;0.20;0.20;;;;;;;20.45;35.58;102716.56;5099172;28;20132;-33
2022/03/21 08:43:31;;;;;;;0.20;0.20;;;;;;;20.45;35.26;102716.56;5103685;28;20054;-34
2022/03/21 08:45:57;;;;;;;0.20;0.20;;;;;;;20.45;35.53;102717.41;5096805;28;20043;-33
2022/03/21 08:49:23;;;;;;;0.20;0.20;;;;;;;20.45;35.36;102716.56;5100266;28;20052;-32
2022/03/21 08:51:09;;;;;;;0.20;0.20;;;;;;;20.45;35.43;102717.41;5094544;28;20078;-33
2022/03/21 08:53:35;;;;;;;0.20;0.20;;;;;;;20.09;33.62;102717.75;5098021;28;20039;-32
2022/03/21 08:56:01;;;;;;;0.20;0.20;;;;;;;20.33;34.26;102713.81;5099007;28;20047;-32
2022/03/21 08:58:27;;;;;;;0.20;0.20;;;;;;;20.42;34.15;102715.16;5095337;28;20071;-32
2022/03/21 09:00:52;;;;;;;0.20;0.20;;;;;;;20.44;34.65;102717.66;5102371;28;20471;-32
2022/03/21 09:03:18;;;;;;;0.20;0.20;;;;;;;20.47;34.35;102708.88;5057472;28;20047;-33
2022/03/21 09:05:46;;;;;;;0.20;0.20;;;;;;;20.48;34.68;102713.34;5091893;28;20538;-31
2022/03/21 09:08:11;;;;;;;0.20;0.20;;;;;;;20.49;34.70;102715.00;5095929;28;20067;-36
2022/03/21 09:10:37;;;;;;;0.20;0.20;;;;;;;20.50;34.55;102708.38;5097917;28;20043;-33
2022/03/21 09:13:05;;;;;;;0.20;0.20;;;;;;;20.50;34.77;102714.75;5099952;28;20054;-33
2022/03/21 09:15:31;;;;;;;0.20;0.20;;;;;;;20.51;35.17;102710.94;5095122;28;20079;-33
2022/03/21 09:17:57;;;;;;;0.20;0.20;;;;;;;20.51;34.70;102708.16;5103648;28;20046;-33
2022/03/21 09:20:23;;;;;;;0.20;0.20;;;;;;;20.52;34.89;102712.59;5085551;28;20056;-32
2022/03/21 09:22:49;;;;;;;0.17;0.17;;;;;;;20.53;34.85;102707.91;5100406;28;20474;-31
2022/03/21 09:25:17;;;;;;;0.20;0.20;;;;;;;20.53;34.74;102713.44;5080722;28;20126;-34
2022/03/21 09:27:42;;;;;;;0.20;0.20;;;;;;;20.55;35.05;102711.25;5099860;28;20071;-32
2022/03/21 09:30:10;;;;;;;0.20;0.20;;;;;;;20.57;34.80;102716.56;5101932;28;20543;-32
2022/03/21 09:32:36;;;;;;;0.20;0.20;;;;;;;20.56;34.79;102710.19;5080299;28;20147;-35
2022/03/21 09:35:02;;;;;;;0.20;0.20;;;;;;;20.59;34.96;102708.84;5098177;28;20398;-33
2022/03/21 09:37:28;;;;;;;0.20;0.20;;;;;;;20.59;34.98;102708.84;5068647;28;20458;-32
2022/03/21 09:39:55;;;;;;;0.20;0.20;;;;;;;20.59;34.61;102712.44;5082732;28;20123;-32
2022/03/21 09:42:21;;;;;;;0.20;0.20;;;;;;;20.60;34.96;102705.84;5093844;28;20043;-33
2022/03/21 09:44:52;;;;;;;0.20;0.20;;;;;;;20.60;34.84;102708.59;5097307;28;20046;-33
2022/03/21 09:50:10;;;;;;;0.20;0.20;;;;;;;20.62;35.08;102703.66;5096202;28;20241;-34
2022/03/21 09:52:36;;;;;;;0.20;0.20;;;;;;;20.64;34.70;102703.38;5078239;28;20069;-31
2022/03/21 09:55:02;;;;;;;0.20;0.20;;;;;;;20.65;34.77;102707.84;5078433;28;20071;-32
2022/03/21 09:57:28;;;;;;;0.20;0.20;;;;;;;20.65;34.71;102697.63;5100413;28;20127;-33
2022/03/21 09:59:57;;;;;;;0.20;0.20;;;;;;;20.65;34.80;102703.16;5101327;28;20044;-33
2022/03/21 10:02:22;;;;;;;0.20;0.20;;;;;;;20.66;34.92;102699.28;5080178;28;20130;-32
2022/03/21 10:04:48;;;;;;;0.20;0.20;;;;;;;20.66;34.76;102698.47;5099344;28;20183;-29
2022/03/21 10:07:16;;;;;;;0.20;0.20;;;;;;;20.66;34.81;102696.53;5103958;28;20047;-31
2022/03/21 10:09:42;;;;;;;0.20;0.20;;;;;;;20.67;34.78;102702.91;5100172;28;20069;-32
2022/03/21 10:12:10;;;;;;;0.20;0.20;;;;;;;20.67;35.02;102708.44;5101557;28;20055;-32
2022/03/21 10:14:36;;;;;;;0.20;0.20;;;;;;;20.66;35.10;102699.28;5103455;28;20409;-34
2022/03/21 10:17:06;;;;;;;0.10;0.10;;;;;;;20.66;34.93;102698.47;5085236;28;20079;-32
2022/03/21 10:19:52;;;;;;;0.20;0.20;;;;;;;20.66;35.01;102702.06;5080360;28;20047;-31
2022/03/21 10:22:21;;;;;;;0.20;0.20;;;;;;;20.66;34.95;102699.28;5087570;28;20054;-32
2022/03/21 10:24:49;;;;;;;0.20;0.20;;;;;;;20.66;34.92;102692.91;5081166;28;20043;-32
2022/03/21 10:27:36;;;;;;;0.20;0.20;;;;;;;20.66;34.90;102691.00;5075739;28;20537;-33
2022/03/21 10:30:07;;;;;;;0.20;0.20;;;;;;;20.65;35.00;102689.31;5087955;28;20046;-32
2022/03/21 10:32:36;;;;;;;0.20;0.20;;;;;;;20.65;35.08;102686.56;5072082;28;20513;-29
2022/03/21 10:35:07;;;;;;;0.20;0.20;;;;;;;20.65;35.02;102680.19;5075872;28;20078;-31
2022/03/21 10:37:55;;;;;;;0.20;0.20;;;;;;;20.64;35.00;102681.25;5067172;28;20370;-32
2022/03/21 10:40:26;;;;;;;0.10;0.10;;;;;;;20.64;35.17;102684.00;5072698;28;20178;-35
2022/03/21 10:42:57;;;;;;;0.20;0.20;;;;;;;20.63;35.16;102677.63;5072169;28;20040;-30
2022/03/21 10:45:26;;;;;;;0.20;0.20;;;;;;;20.64;34.77;102684.00;5068904;28;20066;-39
2022/03/21 10:47:53;;;;;;;0.20;0.20;;;;;;;20.62;33.16;102680.66;5068792;28;20490;-43
2022/03/21 10:50:27;;;;;;;0.20;0.20;;;;;;;20.53;33.88;102680.22;5069485;28;20272;-36
2022/03/21 10:53:15;;;;;;;0.20;0.20;;;;;;;20.63;34.20;102680.41;5054696;28;20522;-32
2022/03/21 10:55:46;;;;;;;0.20;0.20;;;;;;;20.68;34.34;102683.28;5070544;28;20549;-37
2022/03/21 10:58:14;;;;;;;0.20;0.20;;;;;;;20.68;34.26;102676.88;5096784;28;20636;-31
2022/03/21 11:00:40;;;;;;;0.20;0.20;;;;;;;20.68;34.43;102677.75;5089307;28;20071;-32
2022/03/21 11:03:09;;;;;;;0.20;0.20;;;;;;;20.69;34.18;102670.28;5106058;28;20058;-34
2022/03/21 11:05:36;;;;;;;0.20;0.20;;;;;;;20.57;32.75;102672.28;5084560;28;20473;-31
2022/03/21 11:08:04;;;;;;;0.20;0.20;;;;;;;20.69;33.52;102665.59;5081817;28;20447;-31
2022/03/21 11:10:29;;;;;;;0.20;0.20;;;;;;;20.75;33.49;102672.03;5091953;28;20070;-32
2022/03/21 11:12:57;;;;;;;0.13;0.13;;;;;;;20.74;33.56;102673.97;5097536;28;20047;-30
2022/03/21 11:15:24;;;;;;;0.10;0.10;;;;;;;20.75;33.66;102667.34;5081617;28;20100;-31
2022/03/21 11:17:50;;;;;;;0.20;0.20;;;;;;;20.75;33.75;102661.81;5078312;28;20131;-30
2022/03/21 11:20:16;;;;;;;0.20;0.20;;;;;;;20.76;33.75;102666.25;5098555;28;20050;-33
2022/03/21 11:22:43;;;;;;;0.20;0.20;;;;;;;20.78;34.06;102666.00;5090088;28;20059;-35
2022/03/21 11:25:11;;;;;;;0.20;0.20;;;;;;;20.78;34.02;102666.00;5062820;28;20767;-31
2022/03/21 11:27:56;;;;;;;0.15;0.15;;;;;;;20.79;34.05;102656.63;5095743;28;20121;-33
2022/03/21 11:31:02;;;;;;;0.10;0.10;;;;;;;20.79;34.41;102651.91;5074957;28;20082;-31
2022/03/21 11:33:52;;;;;;;0.20;0.20;;;;;;;20.80;34.27;102661.06;5059082;28;20052;-31
2022/03/21 11:36:18;;;;;;;0.20;0.20;;;;;;;20.80;34.20;102650.81;5084621;28;20067;-28
2022/03/21 11:38:47;;;;;;;0.20;0.20;;;;;;;20.82;34.34;102645.03;5081184;28;20048;-33
2022/03/21 11:41:18;;;;;;;0.20;0.20;;;;;;;20.82;34.36;102646.97;5073198;28;21301;-33
2022/03/21 11:43:45;;;;;;;0.10;0.10;;;;;;;20.85;34.13;102652.00;5078255;28;20128;-35
2022/03/21 11:46:30;;;;;;;0.20;0.20;;;;;;;20.85;34.40;102643.69;5079116;28;20306;-32